Terminal Aerodrome Forecast
Issued by NWS

Home | Current Version | Previous Version | Text Only | Print | Product List | Glossary On
Versions: 1 2 3 4 5 6 7 8 9 10 11 12 13 14 15 16 17
000
FTUS46 KSEW 141721
TAFOLM
TAF
KOLM 141721Z 1418/1518 00000KT 1/4SM FG VV002
     FM142000 04006KT P6SM BKN200
     FM150400 00000KT 1/2SM FG VV001
     FM151100 20003KT 1SM BR OVC003
     FM151400 22005KT 3SM -RA BR OVC005=

USA.gov is the U.S. government's official web portal to all federal, state and local government web resources and services.